createdAt,value
2023-05-03T00:00:17.259Z,99834.59
2023-05-03T00:02:45.180Z,99838.12
2023-05-03T00:05:13.538Z,99839.00
2023-05-03T00:07:43.291Z,99837.66
2023-05-03T00:10:13.239Z,99839.31
2023-05-03T00:12:41.301Z,99836.44
2023-05-03T00:15:09.821Z,99838.78
2023-05-03T00:17:38.118Z,99835.09
2023-05-03T00:20:06.485Z,99831.31
2023-05-03T00:22:34.509Z,99841.66
2023-05-03T00:25:02.700Z,99832.38
2023-05-03T00:27:30.952Z,99825.94
2023-05-03T00:29:58.482Z,99833.53
2023-05-03T00:32:26.486Z,99832.41
2023-05-03T00:34:57.554Z,99830.84
2023-05-03T00:37:25.235Z,99834.75
2023-05-03T00:39:53.285Z,99831.72
2023-05-03T00:42:20.750Z,99831.72
2023-05-03T00:44:48.157Z,99835.09
2023-05-03T00:47:16.285Z,99844.94
2023-05-03T00:49:44.628Z,99842.75
2023-05-03T00:52:12.067Z,99844.41
2023-05-03T00:54:39.989Z,99850.34
2023-05-03T00:57:07.579Z,99850.19
2023-05-03T00:59:34.953Z,99850.34
2023-05-03T01:02:02.731Z,99850.69
2023-05-03T01:04:30.603Z,99850.03
2023-05-03T01:07:04.172Z,99863.06
2023-05-03T01:09:41.225Z,99863.72
2023-05-03T01:12:12.031Z,99860.34
2023-05-03T01:15:22.772Z,99861.88
2023-05-03T01:17:51.881Z,99866.59
2023-05-03T01:20:24.924Z,99863.37
2023-05-03T01:23:00.786Z,99858.66
2023-05-03T01:25:28.519Z,99865.63
2023-05-03T01:27:55.912Z,99862.91
2023-05-03T01:30:27.207Z,99865.28
2023-05-03T01:33:07.674Z,99860.19
2023-05-03T01:35:45.661Z,99864.78
2023-05-03T01:38:13.767Z,99855.59
2023-05-03T01:40:45.620Z,99858.97
2023-05-03T01:43:15.920Z,99851.38
2023-05-03T01:45:43.814Z,99857.84
2023-05-03T01:48:14.560Z,99857.31
2023-05-03T01:50:42.368Z,99850.53
2023-05-03T01:53:09.727Z,99850.38
2023-05-03T01:55:37.155Z,99852.69
2023-05-03T01:58:04.926Z,99855.44
2023-05-03T02:00:32.866Z,99849.84
2023-05-03T02:03:00.706Z,99840.87
2023-05-03T02:05:28.159Z,99842.41
2023-05-03T02:07:55.553Z,99848.31
2023-05-03T02:10:23.266Z,99847.81
2023-05-03T02:12:50.702Z,99839.84
2023-05-03T02:15:20.244Z,99841.34
2023-05-03T02:17:49.542Z,99837.78
2023-05-03T02:20:17.426Z,99839.16
2023-05-03T02:22:44.875Z,99828.66
2023-05-03T02:25:12.543Z,99829.69
2023-05-03T02:27:40.233Z,99828.31
2023-05-03T02:30:08.244Z,99837.66
2023-05-03T02:32:38.337Z,99832.75
2023-05-03T02:35:07.398Z,99833.44
2023-05-03T02:37:35.767Z,99828.50
2023-05-03T02:40:06.152Z,99820.84
2023-05-03T02:42:33.692Z,99819.69
2023-05-03T02:45:01.535Z,99827.66
2023-05-03T02:47:30.359Z,99826.63
2023-05-03T02:49:57.799Z,99817.28
2023-05-03T02:52:25.404Z,99816.44
2023-05-03T02:54:53.116Z,99817.09
2023-05-03T02:57:20.565Z,99818.16
2023-05-03T02:59:48.029Z,99821.84
2023-05-03T03:02:15.707Z,99823.38
2023-05-03T03:04:43.119Z,99812.56
2023-05-03T03:07:10.704Z,99812.56
2023-05-03T03:09:38.643Z,99819.31
2023-05-03T03:12:06.295Z,99813.03
2023-05-03T03:14:34.236Z,99811.66
2023-05-03T03:17:05.003Z,99813.56
2023-05-03T03:19:32.572Z,99813.03
2023-05-03T03:21:59.996Z,99810.19
2023-05-03T03:24:27.689Z,99816.94
2023-05-03T03:26:55.090Z,99814.41
2023-05-03T03:29:22.596Z,99821.03
2023-05-03T03:31:50.788Z,99818.66
2023-05-03T03:34:18.862Z,99828.31
2023-05-03T03:36:46.314Z,99827.63
2023-05-03T03:39:14.725Z,99821.53
2023-05-03T03:41:45.098Z,99823.75
2023-05-03T03:44:12.574Z,99818.66
2023-05-03T03:46:40.852Z,99828.84
2023-05-03T03:49:08.818Z,99817.66
2023-05-03T03:51:36.656Z,99825.25
2023-05-03T03:54:04.879Z,99829.34
2023-05-03T03:56:33.525Z,99839.16
2023-05-03T03:59:01.093Z,99837.31
2023-05-03T04:01:28.789Z,99833.41
2023-05-03T04:03:56.580Z,99843.75
2023-05-03T04:06:24.294Z,99851.56
2023-05-03T04:08:52.170Z,99850.47
2023-05-03T04:11:21.539Z,99853.59
2023-05-03T04:13:49.521Z,99851.38
2023-05-03T04:16:17.245Z,99853.91
2023-05-03T04:18:45.482Z,99859.84
2023-05-03T04:21:12.892Z,99856.13
2023-05-03T04:23:41.228Z,99865.44
2023-05-03T04:26:17.022Z,99861.38
2023-05-03T04:28:52.007Z,99868.66
2023-05-03T04:31:21.165Z,99870.03
2023-05-03T04:33:49.212Z,99876.78
2023-05-03T04:36:16.885Z,99869.34
2023-05-03T04:38:45.086Z,99877.00
2023-05-03T04:41:14.144Z,99878.50
2023-05-03T04:43:43.665Z,99881.06
2023-05-03T04:46:11.742Z,99882.06
2023-05-03T04:48:39.231Z,99885.97
2023-05-03T04:51:06.681Z,99889.88
2023-05-03T04:53:34.615Z,99892.06
2023-05-03T04:56:02.396Z,99888.69
2023-05-03T04:58:31.378Z,99897.31
2023-05-03T05:00:59.404Z,99901.63
2023-05-03T05:03:27.869Z,99908.72
2023-05-03T05:05:55.781Z,99904.50
2023-05-03T05:08:23.903Z,99900.41
2023-05-03T05:10:51.595Z,99914.44
2023-05-03T05:13:19.586Z,99912.28
2023-05-03T05:15:47.269Z,99913.84
2023-05-03T05:18:14.685Z,99909.94
2023-05-03T05:20:42.390Z,99914.34
2023-05-03T05:23:10.748Z,99909.25
2023-05-03T05:25:38.303Z,99907.22
2023-05-03T05:28:06.188Z,99907.28
2023-05-03T05:30:35.121Z,99916.28
2023-05-03T05:33:03.605Z,99916.38
2023-05-03T05:35:32.477Z,99915.72
2023-05-03T05:38:00.468Z,99911.31
2023-05-03T05:40:29.574Z,99926.09
2023-05-03T05:42:57.491Z,99924.25
2023-05-03T05:45:25.911Z,99930.00
2023-05-03T05:47:53.594Z,99922.22
2023-05-03T05:50:21.399Z,99926.78
2023-05-03T05:52:53.131Z,99928.31
2023-05-03T05:55:21.289Z,99923.72
2023-05-03T05:57:50.003Z,99929.28
2023-05-03T06:00:19.293Z,99933.84
2023-05-03T06:02:47.672Z,99936.06
2023-05-03T06:05:15.889Z,99936.75
2023-05-03T06:07:43.350Z,99935.56
2023-05-03T06:10:11.373Z,99942.72
2023-05-03T06:12:39.288Z,99941.19
2023-05-03T06:15:07.819Z,99949.03
2023-05-03T06:17:36.184Z,99957.94
2023-05-03T06:20:04.830Z,99963.53
2023-05-03T06:22:32.600Z,99956.66
2023-05-03T06:25:00.469Z,99958.34
2023-05-03T06:27:28.007Z,99958.00
2023-05-03T06:29:56.058Z,99974.12
2023-05-03T06:32:23.915Z,99969.16
2023-05-03T06:34:52.370Z,99971.59
2023-05-03T06:37:19.711Z,99978.72
2023-05-03T06:39:47.393Z,99984.31
2023-05-03T06:42:14.833Z,99984.19
2023-05-03T06:44:43.102Z,99983.75
2023-05-03T06:47:10.934Z,99989.25
2023-05-03T06:49:38.342Z,99984.00
2023-05-03T06:52:08.186Z,99986.72
2023-05-03T06:54:37.203Z,99990.81
2023-05-03T06:57:05.319Z,99998.44
2023-05-03T06:59:32.712Z,99988.22
2023-05-03T07:02:00.488Z,99986.56
2023-05-03T07:04:28.175Z,99984.13
2023-05-03T07:06:56.828Z,99984.13
2023-05-03T07:09:41.494Z,99994.00
2023-05-03T07:12:10.522Z,99990.25
2023-05-03T07:14:39.803Z,99990.59
2023-05-03T07:17:07.500Z,99987.06
2023-05-03T07:19:35.119Z,99992.81
2023-05-03T07:22:03.571Z,99992.13
2023-05-03T07:24:30.974Z,99999.28
2023-05-03T07:26:58.535Z,99996.19
2023-05-03T07:29:27.478Z,99988.94
2023-05-03T07:31:55.075Z,99988.56
2023-05-03T07:34:23.124Z,99981.41
2023-05-03T07:36:52.000Z,99991.06
2023-05-03T07:39:20.044Z,99985.66
2023-05-03T07:41:47.414Z,99982.91
2023-05-03T07:44:15.097Z,99982.62
2023-05-03T07:46:42.460Z,99988.81
2023-05-03T07:49:09.927Z,99989.09
2023-05-03T07:51:38.706Z,99984.13
2023-05-03T07:54:06.833Z,99986.19
2023-05-03T07:56:34.395Z,99987.16
2023-05-03T08:01:32.379Z,99991.88
2023-05-03T08:04:00.232Z,100000.25
2023-05-03T08:06:28.278Z,99998.16
2023-05-03T08:08:55.826Z,99997.12
2023-05-03T08:11:23.490Z,100000.50
2023-05-03T08:13:50.955Z,99998.41
2023-05-03T08:16:18.396Z,100001.53
2023-05-03T08:18:47.032Z,100005.38
2023-05-03T08:21:15.089Z,100009.22
2023-05-03T08:23:43.124Z,100010.06
2023-05-03T08:26:11.015Z,100002.03
2023-05-03T08:28:38.411Z,99999.03
2023-05-03T08:31:06.702Z,100001.25
2023-05-03T08:33:34.477Z,100005.56
2023-05-03T08:36:02.131Z,100005.00
2023-05-03T08:38:29.778Z,99997.34
2023-05-03T08:40:59.817Z,100008.16
2023-05-03T08:43:28.904Z,100006.25
2023-05-03T08:45:56.728Z,100007.25
2023-05-03T08:48:24.109Z,100009.72
2023-05-03T08:50:52.839Z,100015.06
2023-05-03T08:53:20.890Z,100007.25
2023-05-03T08:55:48.320Z,100013.25
2023-05-03T08:58:15.873Z,100014.59
2023-05-03T09:00:45.204Z,100013.25
2023-05-03T09:03:13.251Z,100015.06
2023-05-03T09:05:44.146Z,100010.19
2023-05-03T09:08:13.118Z,100018.09
2023-05-03T09:10:42.166Z,100009.13
2023-05-03T09:13:10.687Z,100009.84
2023-05-03T09:15:38.703Z,100021.47
2023-05-03T09:18:21.304Z,100019.78
2023-05-03T09:20:52.816Z,100019.06
2023-05-03T09:23:26.211Z,100017.66
2023-05-03T09:25:54.759Z,100020.47
2023-05-03T09:28:22.374Z,100014.72
2023-05-03T09:30:50.611Z,100014.69
2023-05-03T09:33:29.199Z,100008.41
2023-05-03T09:36:02.943Z,100023.81
2023-05-03T09:38:32.515Z,100024.84
2023-05-03T09:41:01.376Z,100011.88
2023-05-03T09:43:29.369Z,100021.72
2023-05-03T09:46:13.614Z,100009.66
2023-05-03T09:48:41.328Z,100011.66
2023-05-03T09:51:11.495Z,100010.41
2023-05-03T09:53:40.581Z,100012.94
2023-05-03T09:56:13.241Z,100017.38
2023-05-03T09:58:42.319Z,100018.59
2023-05-03T10:01:10.413Z,100009.87
2023-05-03T10:03:41.591Z,100006.87
2023-05-03T10:06:26.798Z,100010.50
2023-05-03T10:09:12.231Z,100003.84
2023-05-03T10:11:40.601Z,100004.78
2023-05-03T10:14:08.665Z,100008.19
2023-05-03T10:16:38.750Z,100001.28
2023-05-03T10:19:26.157Z,99998.50
2023-05-03T10:21:59.518Z,99999.88
2023-05-03T10:24:27.262Z,100002.66
2023-05-03T10:26:57.410Z,100008.19
2023-05-03T10:29:48.103Z,100001.53
2023-05-03T10:32:28.949Z,100005.56
2023-05-03T10:35:10.338Z,99997.88
2023-05-03T10:37:40.494Z,99999.97
2023-05-03T10:40:12.485Z,100001.47
2023-05-03T10:43:04.410Z,99994.31
2023-05-03T10:45:33.291Z,99986.00
2023-05-03T10:48:13.026Z,99984.25
2023-05-03T10:50:41.786Z,99983.03
2023-05-03T10:53:38.397Z,99981.62
2023-05-03T10:56:08.399Z,99981.16
2023-05-03T10:58:56.610Z,99982.59
2023-05-03T11:01:25.231Z,99986.97
2023-05-03T11:04:04.149Z,99986.37
2023-05-03T11:06:34.471Z,99991.81
2023-05-03T11:09:04.667Z,99984.81
2023-05-03T11:11:32.696Z,99982.31
2023-05-03T11:14:00.187Z,99978.63
2023-05-03T11:16:28.603Z,99985.16
2023-05-03T11:18:56.365Z,99989.88
2023-05-03T11:21:23.887Z,99988.88
2023-05-03T11:23:51.560Z,99993.06
2023-05-03T11:26:21.198Z,99991.88
2023-05-03T11:28:48.562Z,99985.91
2023-05-03T11:31:16.315Z,99986.97
2023-05-03T11:33:44.609Z,99985.03
2023-05-03T11:36:14.925Z,99988.22
2023-05-03T11:38:42.594Z,99991.41
2023-05-03T11:41:18.119Z,99986.50
2023-05-03T11:43:49.483Z,99988.41
2023-05-03T11:46:23.308Z,99979.63
2023-05-03T11:48:51.030Z,99989.59
2023-05-03T11:51:23.000Z,99990.84
2023-05-03T11:53:51.694Z,99993.31
2023-05-03T11:56:20.695Z,99988.97
2023-05-03T11:58:58.548Z,99992.47
2023-05-03T12:01:29.881Z,99990.72
2023-05-03T12:04:00.155Z,99993.63
2023-05-03T12:06:32.198Z,99996.50
2023-05-03T12:09:01.723Z,99988.47
2023-05-03T12:11:32.060Z,99989.12
2023-05-03T12:14:02.421Z,99983.94
2023-05-03T12:16:47.099Z,99984.44
2023-05-03T12:19:26.901Z,99995.50
2023-05-03T12:22:13.454Z,99989.03
2023-05-03T12:24:45.111Z,99984.28
2023-05-03T12:27:14.269Z,99981.41
2023-05-03T12:29:42.176Z,99985.53
2023-05-03T12:32:12.097Z,99974.62
2023-05-03T12:34:41.501Z,99977.03
2023-05-03T12:37:11.762Z,99977.19
2023-05-03T12:39:40.790Z,99984.09
2023-05-03T12:42:09.547Z,99975.06
2023-05-03T12:44:42.261Z,99978.19
2023-05-03T12:47:11.246Z,99974.59
2023-05-03T12:49:39.988Z,99972.88
2023-05-03T12:54:41.561Z,99959.44
2023-05-03T12:57:15.692Z,99963.84
2023-05-03T12:59:51.347Z,99957.56
2023-05-03T13:04:59.047Z,99956.03
2023-05-03T13:07:43.138Z,99962.91
2023-05-03T13:12:46.541Z,99959.31
2023-05-03T13:15:14.385Z,99958.56
2023-05-03T13:17:43.020Z,99942.31
2023-05-03T13:20:12.295Z,99949.75
2023-05-03T13:22:39.983Z,99947.41
2023-05-03T13:25:08.294Z,99946.72
2023-05-03T13:27:35.809Z,99945.03
2023-05-03T13:30:05.054Z,99940.75
2023-05-03T13:32:33.374Z,99944.69
2023-05-03T13:35:01.192Z,99935.97
2023-05-03T13:37:28.899Z,99939.75
2023-05-03T13:39:56.533Z,99941.66
2023-05-03T13:42:24.016Z,99936.81
2023-05-03T13:44:51.865Z,99944.03
2023-05-03T13:47:19.409Z,99936.03
2023-05-03T13:49:46.884Z,99924.66
2023-05-03T13:52:14.875Z,99925.66
2023-05-03T13:54:42.485Z,99923.72
2023-05-03T13:57:09.932Z,99923.94
2023-05-03T13:59:37.610Z,99927.47
2023-05-03T14:02:05.119Z,99932.19
2023-05-03T14:04:32.912Z,99925.91
2023-05-03T14:07:03.175Z,99924.69
2023-05-03T14:09:30.810Z,99926.78
2023-05-03T14:11:58.501Z,99925.16
2023-05-03T14:14:28.858Z,99925.03
2023-05-03T14:16:56.550Z,99921.94
2023-05-03T14:19:24.531Z,99924.13
2023-05-03T14:21:59.104Z,99923.00
2023-05-03T14:24:27.052Z,99932.16
2023-05-03T14:26:54.489Z,99922.38
2023-05-03T14:29:22.095Z,99925.00
2023-05-03T14:31:49.799Z,99919.47
2023-05-03T14:34:17.442Z,99920.84
2023-05-03T14:36:44.899Z,99924.53
2023-05-03T14:39:14.677Z,99919.13
2023-05-03T14:41:44.046Z,99922.16
2023-05-03T14:44:11.560Z,99928.38
2023-05-03T14:46:39.800Z,99915.28
2023-05-03T14:49:07.316Z,99916.72
2023-05-03T14:51:35.096Z,99920.00
2023-05-03T14:54:02.857Z,99934.75
2023-05-03T14:56:32.284Z,99922.09
2023-05-03T14:58:59.713Z,99930.25
2023-05-03T15:01:27.657Z,99925.03
2023-05-03T15:03:55.183Z,99928.53
2023-05-03T15:06:33.151Z,99922.94
2023-05-03T15:09:00.849Z,99925.94
2023-05-03T15:11:28.280Z,99929.53
2023-05-03T15:13:55.941Z,99934.03
2023-05-03T15:16:23.722Z,99924.75
2023-05-03T15:18:51.342Z,99925.25
2023-05-03T15:21:19.754Z,99930.28
2023-05-03T15:23:49.590Z,99924.84
2023-05-03T15:26:17.295Z,99926.78
2023-05-03T15:28:44.716Z,99922.19
2023-05-03T15:31:14.001Z,99925.41
2023-05-03T15:33:44.968Z,99929.62
2023-05-03T15:36:13.696Z,99928.44
2023-05-03T15:38:41.270Z,99923.69
2023-05-03T15:41:09.348Z,99928.91
2023-05-03T15:43:37.515Z,99921.69
2023-05-03T15:46:05.654Z,99920.97
2023-05-03T15:48:33.237Z,99934.72
2023-05-03T15:51:00.976Z,99934.84
2023-05-03T15:53:28.465Z,99933.88
2023-05-03T15:55:58.824Z,99934.94
2023-05-03T15:58:30.383Z,99937.25
2023-05-03T16:00:59.110Z,99925.44
2023-05-03T16:03:29.794Z,99928.41
2023-05-03T16:05:57.410Z,99934.28
2023-05-03T16:08:25.269Z,99931.19
2023-05-03T16:10:53.056Z,99944.47
2023-05-03T16:13:20.573Z,99942.72
2023-05-03T16:15:52.346Z,99939.56
2023-05-03T16:18:20.220Z,99937.47
2023-05-03T16:20:48.428Z,99937.47
2023-05-03T16:23:16.065Z,99936.78
2023-05-03T16:25:43.777Z,99943.16
2023-05-03T16:28:11.194Z,99946.53
2023-05-03T16:30:38.563Z,99944.69
2023-05-03T16:33:06.640Z,99945.22
2023-05-03T16:35:34.180Z,99948.53
2023-05-03T16:38:01.661Z,99943.59
2023-05-03T16:40:29.657Z,99945.81
2023-05-03T16:42:58.168Z,99941.38
2023-05-03T16:45:25.979Z,99947.31
2023-05-03T16:47:53.820Z,99935.13
2023-05-03T16:50:21.312Z,99938.34
2023-05-03T16:52:48.837Z,99941.06
2023-05-03T16:55:21.995Z,99935.22
2023-05-03T16:57:49.427Z,99934.09
2023-05-03T17:00:17.383Z,99937.06
2023-05-03T17:02:44.986Z,99945.47
2023-05-03T17:05:13.000Z,99944.59
2023-05-03T17:07:43.473Z,99942.28
2023-05-03T17:10:10.995Z,99941.91
2023-05-03T17:12:38.639Z,99947.69
2023-05-03T17:15:06.919Z,99946.75
2023-05-03T17:17:34.308Z,99939.47
2023-05-03T17:20:01.993Z,99948.09
2023-05-03T17:22:29.872Z,99944.59
2023-05-03T17:24:57.967Z,99957.84
2023-05-03T17:27:25.590Z,99953.97
2023-05-03T17:29:56.924Z,99946.22
2023-05-03T17:32:24.430Z,99944.25
2023-05-03T17:34:51.805Z,99943.38
2023-05-03T17:37:19.536Z,99945.00
2023-05-03T17:39:47.011Z,99955.87
2023-05-03T17:42:14.380Z,99953.13
2023-05-03T17:44:42.044Z,99949.28
2023-05-03T17:47:11.099Z,99953.72
2023-05-03T17:49:38.573Z,99949.72
2023-05-03T17:52:06.557Z,99954.44
2023-05-03T17:54:35.148Z,99964.19
2023-05-03T17:57:03.421Z,99966.72
2023-05-03T17:59:31.184Z,99976.72
2023-05-03T18:01:58.612Z,99975.03
2023-05-03T18:04:27.051Z,99969.81
2023-05-03T18:06:54.759Z,99984.81
2023-05-03T18:09:23.450Z,99980.59
2023-05-03T18:11:54.502Z,99985.94
2023-05-03T18:14:22.040Z,99979.16
2023-05-03T18:16:49.431Z,99995.03
2023-05-03T18:19:17.081Z,99991.94
2023-05-03T18:21:44.473Z,99994.31
2023-05-03T18:24:11.883Z,99990.50
2023-05-03T18:26:39.645Z,99992.31
2023-05-03T18:29:07.066Z,99988.59
2023-05-03T18:31:34.637Z,99995.50
2023-05-03T18:34:02.686Z,99995.66
2023-05-03T18:36:30.301Z,99997.69
2023-05-03T18:38:57.938Z,99994.37
2023-05-03T18:41:25.674Z,100002.22
2023-05-03T18:43:53.162Z,100000.03
2023-05-03T18:46:20.663Z,100004.34
2023-05-03T18:48:48.448Z,100008.25
2023-05-03T18:51:16.594Z,100007.13
2023-05-03T18:53:43.999Z,100013.25
2023-05-03T18:56:11.968Z,100012.47
2023-05-03T18:58:39.395Z,100014.25
2023-05-03T19:01:07.139Z,100026.72
2023-05-03T19:03:36.164Z,100021.84
2023-05-03T19:06:07.345Z,100019.06
2023-05-03T19:08:35.696Z,100028.50
2023-05-03T19:11:09.086Z,100032.16
2023-05-03T19:13:37.153Z,100027.37
2023-05-03T19:16:05.084Z,100026.75
2023-05-03T19:18:32.485Z,100038.84
2023-05-03T19:21:01.359Z,100036.84
2023-05-03T19:23:28.823Z,100038.97
2023-05-03T19:25:56.670Z,100044.66
2023-05-03T19:28:24.490Z,100044.06
2023-05-03T19:30:52.129Z,100042.31
2023-05-03T19:33:20.057Z,100048.56
2023-05-03T19:35:48.040Z,100050.41
2023-05-03T19:38:15.520Z,100057.94
2023-05-03T19:40:57.809Z,100053.91
2023-05-03T19:43:25.901Z,100052.84
2023-05-03T19:45:53.421Z,100052.84
2023-05-03T19:48:21.156Z,100064.47
2023-05-03T19:50:49.038Z,100071.63
2023-05-03T19:53:16.557Z,100069.09
2023-05-03T19:55:54.905Z,100069.31
2023-05-03T19:58:22.819Z,100074.87
2023-05-03T20:00:50.475Z,100073.44
2023-05-03T20:03:18.604Z,100070.56
2023-05-03T20:05:47.137Z,100068.03
2023-05-03T20:08:14.759Z,100078.25
2023-05-03T20:10:44.700Z,100082.62
2023-05-03T20:13:13.700Z,100081.09
2023-05-03T20:15:41.566Z,100087.94
2023-05-03T20:18:09.422Z,100088.84
2023-05-03T20:20:37.053Z,100092.16
2023-05-03T20:23:04.457Z,100091.53
2023-05-03T20:25:32.139Z,100095.47
2023-05-03T20:27:59.675Z,100093.66
2023-05-03T20:30:29.159Z,100095.09
2023-05-03T20:32:57.582Z,100091.97
2023-05-03T20:35:25.319Z,100103.97
2023-05-03T20:37:53.147Z,100109.59
2023-05-03T20:40:20.768Z,100108.53
2023-05-03T20:42:48.188Z,100117.41
2023-05-03T20:45:15.825Z,100116.25
2023-05-03T20:47:43.816Z,100118.22
2023-05-03T20:50:11.841Z,100118.66
2023-05-03T20:52:39.514Z,100122.41
2023-05-03T20:55:07.443Z,100120.25
2023-05-03T20:57:34.841Z,100121.25
2023-05-03T21:00:04.348Z,100111.09
2023-05-03T21:02:32.722Z,100118.06
2023-05-03T21:05:00.290Z,100120.25
2023-05-03T21:07:28.917Z,100115.13
2023-05-03T21:09:56.617Z,100117.69
2023-05-03T21:12:24.106Z,100119.25
2023-05-03T21:14:51.480Z,100114.03
2023-05-03T21:17:19.196Z,100117.59
2023-05-03T21:19:46.685Z,100109.75
2023-05-03T21:22:14.109Z,100108.44
2023-05-03T21:24:41.998Z,100107.75
2023-05-03T21:27:09.539Z,100106.25
2023-05-03T21:29:36.996Z,100103.53
2023-05-03T21:32:05.118Z,100108.06
2023-05-03T21:34:32.672Z,100108.91
2023-05-03T21:37:01.100Z,100108.06
2023-05-03T21:39:28.852Z,100110.09
2023-05-03T21:41:56.784Z,100115.19
2023-05-03T21:44:24.244Z,100111.00
2023-05-03T21:46:51.970Z,100106.47
2023-05-03T21:49:19.418Z,100110.72
2023-05-03T21:51:47.101Z,100116.88
2023-05-03T21:54:15.985Z,100117.91
2023-05-03T21:56:43.390Z,100112.72
2023-05-03T21:59:10.870Z,100114.28
2023-05-03T22:01:38.589Z,100117.94
2023-05-03T22:04:06.551Z,100119.50
2023-05-03T22:06:34.013Z,100120.84
2023-05-03T22:09:01.445Z,100121.41
2023-05-03T22:11:29.472Z,100120.19
2023-05-03T22:14:07.587Z,100120.66
2023-05-03T22:16:37.768Z,100115.81
2023-05-03T22:19:05.530Z,100121.78
2023-05-03T22:21:32.978Z,100119.56
2023-05-03T22:24:00.664Z,100114.97
2023-05-03T22:26:28.054Z,100110.34
2023-05-03T22:28:55.607Z,100109.88
2023-05-03T22:31:23.567Z,100115.44
2023-05-03T22:33:50.980Z,100105.31
2023-05-03T22:36:18.364Z,100105.37
2023-05-03T22:38:46.239Z,100106.22
2023-05-03T22:41:13.711Z,100105.19
2023-05-03T22:43:41.066Z,100099.56
2023-05-03T22:46:08.825Z,100096.16
2023-05-03T22:48:36.254Z,100092.16
2023-05-03T22:51:03.734Z,100091.97
2023-05-03T22:53:31.437Z,100090.59
2023-05-03T22:56:00.810Z,100088.53
2023-05-03T22:58:28.715Z,100086.91
2023-05-03T23:00:56.598Z,100086.59
2023-05-03T23:03:24.297Z,100082.31
2023-05-03T23:05:52.884Z,100085.69
2023-05-03T23:08:21.227Z,100085.31
2023-05-03T23:10:48.639Z,100090.78
2023-05-03T23:13:16.658Z,100083.16
2023-05-03T23:15:44.782Z,100083.44
2023-05-03T23:18:12.599Z,100078.22
2023-05-03T23:20:40.065Z,100076.91
2023-05-03T23:23:07.754Z,100077.97
2023-05-03T23:25:35.135Z,100074.37
2023-05-03T23:28:02.635Z,100072.94
2023-05-03T23:30:30.870Z,100076.41
2023-05-03T23:32:58.774Z,100068.94
2023-05-03T23:35:26.858Z,100063.03
2023-05-03T23:37:54.542Z,100063.78
2023-05-03T23:40:21.994Z,100060.75
2023-05-03T23:42:49.762Z,100060.03
2023-05-03T23:45:17.452Z,100055.88
2023-05-03T23:47:44.986Z,100059.94
2023-05-03T23:50:12.713Z,100046.25
2023-05-03T23:52:41.873Z,100044.91
2023-05-03T23:55:09.707Z,100051.06
2023-05-03T23:57:37.155Z,100040.59
